createdAt,value
2022-12-24T00:01:06.716Z,43.17
2022-12-24T00:03:35.104Z,38.90
2022-12-24T00:06:07.827Z,47.65
2022-12-24T00:08:35.320Z,47.35
2022-12-24T00:11:02.564Z,46.03
2022-12-24T00:13:29.352Z,49.08
2022-12-24T00:15:56.321Z,41.47
2022-12-24T00:18:23.155Z,50.63
2022-12-24T00:20:50.878Z,32.70
2022-12-24T00:23:18.592Z,36.50
2022-12-24T00:25:45.761Z,45.10
2022-12-24T00:28:13.667Z,34.13
2022-12-24T00:30:43.111Z,35.65
2022-12-24T00:33:10.728Z,35.65
2022-12-24T00:35:39.373Z,37.60
2022-12-24T00:38:08.058Z,36.83
2022-12-24T00:40:35.314Z,33.65
2022-12-24T00:43:02.099Z,31.60
2022-12-24T00:45:28.872Z,35.58
2022-12-24T00:47:55.868Z,30.15
2022-12-24T00:50:22.688Z,39.17
2022-12-24T00:52:49.452Z,29.58
2022-12-24T00:55:16.673Z,38.60
2022-12-24T00:57:43.480Z,33.65
2022-12-24T01:00:11.021Z,29.40
2022-12-24T01:02:38.119Z,26.70
2022-12-24T01:05:11.632Z,32.15
2022-12-24T01:07:44.528Z,34.38
2022-12-24T01:10:15.147Z,30.90
2022-12-24T01:12:42.992Z,33.60
2022-12-24T01:15:11.819Z,35.35
2022-12-24T01:17:39.597Z,32.30
2022-12-24T01:20:09.899Z,32.58
2022-12-24T01:22:36.850Z,28.88
2022-12-24T01:25:03.924Z,32.47
2022-12-24T01:27:31.283Z,38.25
2022-12-24T01:29:58.057Z,30.25
2022-12-24T01:32:24.918Z,23.27
2022-12-24T01:34:51.685Z,24.88
2022-12-24T01:37:18.485Z,22.35
2022-12-24T01:39:45.286Z,26.38
2022-12-24T01:42:38.523Z,21.23
2022-12-24T01:45:42.935Z,23.50
2022-12-24T01:48:45.952Z,21.23
2022-12-24T01:51:24.939Z,27.80
2022-12-24T01:54:01.411Z,15.38
2022-12-24T01:56:31.555Z,23.42
2022-12-24T01:59:07.063Z,18.13
2022-12-24T02:01:34.737Z,24.40
2022-12-24T02:04:12.815Z,14.85
2022-12-24T02:06:39.591Z,18.77
2022-12-24T02:09:07.468Z,17.45
2022-12-24T02:11:37.286Z,18.52
2022-12-24T02:14:04.591Z,18.90
2022-12-24T02:17:15.699Z,20.98
2022-12-24T02:20:46.886Z,23.88
2022-12-24T02:23:19.842Z,23.50
2022-12-24T02:26:14.622Z,22.45
2022-12-24T02:29:11.733Z,20.80
2022-12-24T02:31:46.531Z,17.25
2022-12-24T02:37:17.597Z,11.73
2022-12-24T02:40:21.030Z,16.55
2022-12-24T02:43:08.804Z,15.23
2022-12-24T02:45:36.679Z,15.27
2022-12-24T02:48:03.964Z,17.13
2022-12-24T02:50:30.781Z,18.60
2022-12-24T02:52:57.654Z,17.25
2022-12-24T02:55:34.725Z,16.63
2022-12-24T02:58:42.295Z,17.05
2022-12-24T03:01:39.565Z,16.30
2022-12-24T03:04:41.812Z,12.55
2022-12-24T03:07:30.240Z,17.83
2022-12-24T03:10:12.541Z,13.48
2022-12-24T03:12:45.729Z,15.13
2022-12-24T03:15:17.035Z,11.00
2022-12-24T03:17:48.212Z,18.45
2022-12-24T03:20:21.989Z,12.63
2022-12-24T03:22:49.140Z,14.48
2022-12-24T03:25:17.226Z,9.15
2022-12-24T03:27:44.977Z,13.63
2022-12-24T03:30:14.652Z,18.88
2022-12-24T03:32:42.014Z,18.60
2022-12-24T03:35:10.137Z,6.68
2022-12-24T03:37:37.172Z,11.50
2022-12-24T03:40:06.402Z,12.63
2022-12-24T03:42:33.321Z,9.85
2022-12-24T03:45:00.198Z,11.00
2022-12-24T03:47:27.023Z,13.52
2022-12-24T03:49:53.884Z,13.93
2022-12-24T03:52:21.006Z,10.95
2022-12-24T03:54:47.981Z,11.48
2022-12-24T03:57:14.842Z,8.23
2022-12-24T03:59:41.776Z,8.00
2022-12-24T04:02:08.849Z,15.38
2022-12-24T04:04:37.879Z,12.30
2022-12-24T04:07:06.249Z,9.32
2022-12-24T04:09:33.515Z,15.43
2022-12-24T04:12:00.408Z,16.50
2022-12-24T04:14:27.237Z,11.85
2022-12-24T04:16:54.224Z,15.38
2022-12-24T04:19:21.160Z,7.60
2022-12-24T04:21:47.979Z,12.88
2022-12-24T04:24:14.802Z,10.18
2022-12-24T04:26:41.691Z,10.23
2022-12-24T04:29:08.740Z,15.18
2022-12-24T04:31:35.645Z,9.98
2022-12-24T04:34:02.537Z,17.90
2022-12-24T04:36:29.941Z,14.23
2022-12-24T04:38:56.773Z,8.98
2022-12-24T04:41:25.309Z,17.50
2022-12-24T04:43:54.816Z,8.63
2022-12-24T04:46:25.646Z,10.32
2022-12-24T04:48:54.612Z,15.77
2022-12-24T04:51:22.116Z,14.95
2022-12-24T04:53:49.819Z,20.25
2022-12-24T04:56:24.408Z,19.08
2022-12-24T04:58:52.181Z,18.33
2022-12-24T05:01:25.730Z,17.20
2022-12-24T05:03:53.193Z,21.98
2022-12-24T05:06:26.445Z,17.92
2022-12-24T05:08:58.089Z,18.92
2022-12-24T05:11:25.578Z,17.27
2022-12-24T05:13:52.717Z,15.13
2022-12-24T05:16:22.249Z,16.73
2022-12-24T05:18:49.183Z,22.83
2022-12-24T05:21:19.926Z,15.00
2022-12-24T05:24:05.683Z,15.38
2022-12-24T05:26:39.948Z,15.05
2022-12-24T05:29:09.233Z,20.33
2022-12-24T05:31:36.411Z,18.77
2022-12-24T05:34:04.008Z,21.75
2022-12-24T05:36:31.090Z,20.52
2022-12-24T05:38:58.246Z,15.73
2022-12-24T05:41:25.724Z,21.33
2022-12-24T05:43:52.639Z,16.65
2022-12-24T05:46:22.028Z,17.75
2022-12-24T05:48:50.526Z,17.30
2022-12-24T05:51:20.010Z,19.38
2022-12-24T05:53:47.998Z,20.58
2022-12-24T05:56:19.380Z,21.77
2022-12-24T05:58:46.613Z,18.25
2022-12-24T06:01:14.462Z,15.30
2022-12-24T06:03:41.951Z,25.13
2022-12-24T06:06:13.854Z,21.30
2022-12-24T06:08:42.454Z,22.70
2022-12-24T06:11:14.287Z,13.57
2022-12-24T06:13:42.694Z,22.73
2022-12-24T06:16:17.323Z,20.73
2022-12-24T06:18:44.847Z,22.30
2022-12-24T06:21:12.541Z,17.35
2022-12-24T06:23:42.736Z,20.20
2022-12-24T06:26:13.818Z,21.95
2022-12-24T06:28:41.231Z,19.35
2022-12-24T06:31:14.423Z,22.30
2022-12-24T06:33:41.654Z,22.33
2022-12-24T06:36:18.774Z,24.00
2022-12-24T06:38:47.449Z,26.70
2022-12-24T06:41:15.343Z,21.27
2022-12-24T06:43:48.088Z,29.55
2022-12-24T06:46:16.061Z,36.80
2022-12-24T06:48:45.621Z,24.65
2022-12-24T06:51:13.571Z,25.13
2022-12-24T06:53:41.299Z,26.17
2022-12-24T06:56:12.130Z,34.05
2022-12-24T06:58:41.156Z,25.42
2022-12-24T07:01:14.565Z,36.65
2022-12-24T07:03:42.601Z,31.95
2022-12-24T07:06:30.293Z,25.60
2022-12-24T07:08:57.588Z,28.92
2022-12-24T07:11:26.041Z,21.70
2022-12-24T07:13:53.096Z,32.63
2022-12-24T07:16:20.333Z,24.05
2022-12-24T07:18:48.206Z,26.80
2022-12-24T07:21:15.159Z,36.97
2022-12-24T07:23:42.023Z,25.05
2022-12-24T07:26:09.142Z,30.20
2022-12-24T07:28:36.154Z,28.40
2022-12-24T07:31:03.567Z,24.65
2022-12-24T07:33:30.698Z,31.05
2022-12-24T07:36:07.917Z,30.35
2022-12-24T07:38:35.485Z,26.10
2022-12-24T07:41:02.636Z,40.58
2022-12-24T07:43:29.503Z,40.03
2022-12-24T07:45:58.141Z,43.03
2022-12-24T07:48:27.994Z,32.50
2022-12-24T07:50:57.237Z,38.22
2022-12-24T07:53:25.580Z,42.03
2022-12-24T07:55:52.709Z,38.88
2022-12-24T07:58:20.195Z,30.40
2022-12-24T08:00:47.003Z,30.75
2022-12-24T08:03:21.519Z,41.83
2022-12-24T08:08:16.165Z,37.83
2022-12-24T08:10:44.402Z,31.10
2022-12-24T08:13:11.256Z,33.35
2022-12-24T08:15:38.177Z,26.30
2022-12-24T08:18:05.223Z,39.47
2022-12-24T08:20:31.982Z,33.05
2022-12-24T08:22:58.774Z,36.38
2022-12-24T08:25:25.614Z,31.58
2022-12-24T08:27:52.445Z,39.03
2022-12-24T08:30:21.580Z,34.13
2022-12-24T08:32:48.976Z,28.92
2022-12-24T08:35:15.964Z,34.05
2022-12-24T08:37:42.894Z,37.67
2022-12-24T08:40:10.787Z,37.40
2022-12-24T08:42:37.651Z,30.55
2022-12-24T08:45:05.051Z,29.73
2022-12-24T08:47:31.844Z,33.38
2022-12-24T08:49:58.619Z,33.47
2022-12-24T08:52:25.425Z,31.40
2022-12-24T08:54:52.253Z,31.13
2022-12-24T08:57:20.321Z,21.75
2022-12-24T08:59:47.269Z,27.88
2022-12-24T09:02:14.560Z,33.17
2022-12-24T09:04:41.770Z,30.70
2022-12-24T09:07:09.843Z,33.30
2022-12-24T09:09:38.320Z,38.90
2022-12-24T09:12:09.006Z,36.22
2022-12-24T09:14:35.967Z,32.13
2022-12-24T09:17:02.852Z,33.25
2022-12-24T09:19:29.677Z,31.75
2022-12-24T09:21:56.519Z,28.60
2022-12-24T09:24:23.727Z,28.60
2022-12-24T09:26:57.292Z,34.67
2022-12-24T09:29:24.443Z,27.92
2022-12-24T09:31:51.742Z,35.50
2022-12-24T09:34:18.619Z,42.67
2022-12-24T09:36:46.700Z,30.75
2022-12-24T09:39:14.589Z,34.03
2022-12-24T09:42:05.701Z,32.83
2022-12-24T09:44:43.738Z,42.63
2022-12-24T09:47:22.696Z,41.55
2022-12-24T09:49:54.057Z,41.83
2022-12-24T09:52:34.558Z,45.45
2022-12-24T09:55:34.149Z,37.65
2022-12-24T09:58:05.342Z,37.78
2022-12-24T10:00:38.263Z,34.35
2022-12-24T10:03:18.643Z,35.30
2022-12-24T10:06:11.925Z,35.08
2022-12-24T10:08:44.571Z,38.95
2022-12-24T10:11:27.270Z,32.85
2022-12-24T10:14:18.833Z,33.67
2022-12-24T10:16:49.714Z,30.83
2022-12-24T10:19:37.821Z,40.20
2022-12-24T10:22:52.660Z,48.22
2022-12-24T10:25:32.288Z,38.63
2022-12-24T10:28:02.817Z,45.70
2022-12-24T10:30:30.107Z,42.30
2022-12-24T10:32:56.915Z,41.25
2022-12-24T10:35:30.068Z,42.90
2022-12-24T10:37:58.309Z,58.55
2022-12-24T10:40:32.720Z,48.85
2022-12-24T10:42:59.787Z,49.30
2022-12-24T10:45:38.181Z,59.10
2022-12-24T10:48:12.855Z,48.92
2022-12-24T10:51:15.877Z,34.25
2022-12-24T10:53:46.268Z,44.78
2022-12-24T10:56:17.952Z,51.00
2022-12-24T10:58:57.197Z,43.67
2022-12-24T11:01:45.656Z,48.70
2022-12-24T11:04:19.295Z,54.67
2022-12-24T11:07:03.960Z,55.67
2022-12-24T11:09:43.523Z,43.08
2022-12-24T11:12:24.015Z,58.88
2022-12-24T11:15:03.306Z,63.90
2022-12-24T11:17:30.610Z,66.85
2022-12-24T11:19:58.577Z,63.40
2022-12-24T11:22:29.893Z,49.78
2022-12-24T11:25:21.255Z,62.85
2022-12-24T11:27:51.746Z,47.75
2022-12-24T11:30:31.589Z,47.13
2022-12-24T11:33:01.419Z,65.28
2022-12-24T11:35:31.810Z,61.78
2022-12-24T11:38:01.558Z,61.90
2022-12-24T11:40:42.581Z,59.38
2022-12-24T11:43:18.492Z,61.00
2022-12-24T11:45:57.155Z,50.00
2022-12-24T11:48:34.894Z,55.35
2022-12-24T11:51:04.910Z,52.53
2022-12-24T11:54:23.254Z,53.03
2022-12-24T11:56:55.386Z,43.97
2022-12-24T11:59:38.658Z,47.58
2022-12-24T12:02:33.731Z,53.80
2022-12-24T12:05:12.272Z,43.83
2022-12-24T12:07:39.651Z,46.33
2022-12-24T12:10:18.392Z,48.33
2022-12-24T12:12:56.991Z,53.55
2022-12-24T12:15:33.016Z,44.88
2022-12-24T12:18:18.115Z,49.95
2022-12-24T12:21:04.215Z,43.72
2022-12-24T12:23:36.616Z,45.63
2022-12-24T12:26:24.713Z,42.83
2022-12-24T12:29:13.112Z,41.13
2022-12-24T12:31:46.031Z,46.28
2022-12-24T12:34:22.214Z,45.50
2022-12-24T12:36:54.691Z,39.10
2022-12-24T12:39:21.484Z,40.97
2022-12-24T12:42:16.317Z,41.65
2022-12-24T12:45:00.016Z,49.03
2022-12-24T12:48:03.925Z,50.30
2022-12-24T12:51:16.086Z,37.10
2022-12-24T12:54:00.839Z,40.47
2022-12-24T12:56:36.998Z,43.58
2022-12-24T12:59:32.169Z,41.15
2022-12-24T13:02:18.015Z,41.72
2022-12-24T13:05:36.627Z,42.13
2022-12-24T13:08:47.705Z,43.33
2022-12-24T13:11:42.445Z,41.20
2022-12-24T13:14:33.908Z,46.92
2022-12-24T13:17:40.956Z,37.13
2022-12-24T13:20:32.268Z,34.55
2022-12-24T13:23:03.526Z,33.53
2022-12-24T13:25:39.447Z,39.88
2022-12-24T13:28:24.540Z,47.67
2022-12-24T13:31:02.118Z,41.28
2022-12-24T13:33:38.397Z,41.05
2022-12-24T13:36:17.188Z,38.30
2022-12-24T13:39:04.209Z,48.80
2022-12-24T13:41:39.988Z,51.05
2022-12-24T13:44:07.803Z,49.33
2022-12-24T13:46:56.757Z,43.08
2022-12-24T13:49:38.699Z,43.05
2022-12-24T13:52:21.982Z,40.63
2022-12-24T13:54:54.754Z,52.17
2022-12-24T13:57:36.055Z,37.40
2022-12-24T14:00:23.072Z,47.60
2022-12-24T14:03:19.824Z,43.80
2022-12-24T14:05:56.018Z,47.00
2022-12-24T14:08:27.976Z,49.28
2022-12-24T14:11:06.053Z,46.95
2022-12-24T14:13:38.816Z,37.78
2022-12-24T14:16:24.425Z,39.83
2022-12-24T14:19:04.009Z,43.25
2022-12-24T14:21:40.294Z,48.08
2022-12-24T14:24:23.280Z,49.97
2022-12-24T14:27:20.093Z,43.35
2022-12-24T14:30:05.334Z,37.97
2022-12-24T14:35:22.350Z,46.92
2022-12-24T14:37:56.890Z,41.65
2022-12-24T14:40:28.841Z,41.00
2022-12-24T14:43:06.933Z,52.47
2022-12-24T14:45:49.177Z,48.47
2022-12-24T14:48:27.151Z,36.38
2022-12-24T14:51:05.333Z,38.10
2022-12-24T14:54:06.108Z,35.17
2022-12-24T14:56:33.367Z,42.90
2022-12-24T14:59:05.008Z,37.33
2022-12-24T15:01:36.348Z,38.97
2022-12-24T15:04:21.212Z,56.08
2022-12-24T15:06:53.322Z,49.72
2022-12-24T15:09:22.042Z,39.15
2022-12-24T15:11:52.992Z,45.42
2022-12-24T15:14:22.317Z,44.95
2022-12-24T15:16:56.851Z,43.65
2022-12-24T15:19:33.880Z,44.30
2022-12-24T15:22:03.427Z,45.30
2022-12-24T15:24:37.076Z,46.15
2022-12-24T15:27:16.666Z,40.13
2022-12-24T15:29:47.249Z,48.00
2022-12-24T15:32:17.263Z,41.65
2022-12-24T15:34:47.827Z,38.78
2022-12-24T15:37:31.877Z,42.20
2022-12-24T15:40:22.618Z,44.90
2022-12-24T15:42:50.011Z,40.15
2022-12-24T15:45:30.764Z,37.40
2022-12-24T15:48:02.137Z,44.15
2022-12-24T15:50:34.431Z,51.88
2022-12-24T15:53:31.021Z,37.42
2022-12-24T15:56:11.681Z,50.75
2022-12-24T15:58:44.989Z,41.90
2022-12-24T16:01:17.766Z,49.55
2022-12-24T16:03:50.830Z,51.85
2022-12-24T16:06:18.825Z,52.35
2022-12-24T16:08:46.821Z,46.17
2022-12-24T16:11:34.771Z,59.75
2022-12-24T16:14:12.461Z,44.13
2022-12-24T16:16:42.972Z,55.30
2022-12-24T16:19:40.471Z,48.88
2022-12-24T16:22:26.320Z,48.97
2022-12-24T16:24:55.717Z,46.53
2022-12-24T16:27:22.772Z,61.15
2022-12-24T16:29:50.474Z,51.05
2022-12-24T16:32:35.061Z,51.42
2022-12-24T16:35:05.405Z,51.80
2022-12-24T16:37:32.328Z,52.80
2022-12-24T16:39:59.257Z,64.50
2022-12-24T16:42:44.958Z,76.78
2022-12-24T16:45:11.905Z,59.90
2022-12-24T16:47:43.167Z,68.97
2022-12-24T16:50:17.216Z,59.88
2022-12-24T16:52:44.212Z,52.42
2022-12-24T16:55:14.434Z,66.90
2022-12-24T16:57:43.382Z,61.70
2022-12-24T17:00:20.893Z,58.13
2022-12-24T17:02:49.803Z,72.88
2022-12-24T17:05:17.117Z,72.68
2022-12-24T17:07:44.479Z,66.53
2022-12-24T17:10:14.933Z,60.85
2022-12-24T17:12:42.966Z,72.45
2022-12-24T17:15:10.706Z,57.90
2022-12-24T17:17:37.973Z,71.15
2022-12-24T17:20:05.907Z,67.72
2022-12-24T17:22:32.755Z,67.95
2022-12-24T17:24:59.630Z,69.97
2022-12-24T17:27:26.432Z,66.82
2022-12-24T17:29:53.366Z,61.85
2022-12-24T17:32:20.464Z,66.25
2022-12-24T17:34:47.282Z,67.28
2022-12-24T17:37:14.113Z,57.25
2022-12-24T17:39:41.253Z,63.75
2022-12-24T17:42:08.218Z,65.82
2022-12-24T17:44:35.411Z,59.55
2022-12-24T17:47:05.412Z,55.33
2022-12-24T17:49:32.530Z,71.10
2022-12-24T17:51:59.597Z,70.43
2022-12-24T17:54:26.597Z,58.47
2022-12-24T17:56:53.391Z,63.65
2022-12-24T17:59:20.216Z,62.17
2022-12-24T18:01:47.110Z,55.30
2022-12-24T18:04:14.451Z,68.18
2022-12-24T18:06:47.236Z,75.57
2022-12-24T18:09:15.961Z,76.40
2022-12-24T18:11:42.839Z,64.05
2022-12-24T18:14:14.184Z,64.45
2022-12-24T18:16:42.637Z,69.93
2022-12-24T18:19:12.190Z,60.05
2022-12-24T18:21:40.548Z,66.80
2022-12-24T18:24:09.337Z,58.88
2022-12-24T18:26:36.770Z,66.93
2022-12-24T18:29:08.919Z,65.50
2022-12-24T18:31:36.783Z,55.70
2022-12-24T18:34:07.569Z,53.00
2022-12-24T18:36:35.045Z,73.75
2022-12-24T18:39:02.462Z,69.00
2022-12-24T18:41:31.049Z,57.03
2022-12-24T18:43:59.422Z,65.15
2022-12-24T18:46:30.433Z,72.10
2022-12-24T18:48:59.786Z,64.80
2022-12-24T18:51:36.341Z,61.13
2022-12-24T18:54:04.977Z,61.25
2022-12-24T18:56:32.094Z,53.13
2022-12-24T18:59:02.254Z,59.45
2022-12-24T19:01:34.815Z,55.58
2022-12-24T19:04:02.965Z,54.72
2022-12-24T19:06:30.362Z,65.57
2022-12-24T19:08:59.071Z,52.65
2022-12-24T19:11:30.775Z,63.97
2022-12-24T19:13:58.494Z,67.80
2022-12-24T19:16:27.273Z,49.28
2022-12-24T19:18:54.755Z,57.45
2022-12-24T19:21:21.994Z,73.28
2022-12-24T19:23:49.315Z,59.15
2022-12-24T19:26:18.659Z,58.05
2022-12-24T19:28:46.354Z,59.22
2022-12-24T19:31:20.691Z,57.72
2022-12-24T19:33:51.230Z,51.97
2022-12-24T19:36:22.856Z,53.47
2022-12-24T19:38:49.993Z,53.92
2022-12-24T19:41:19.811Z,62.97
2022-12-24T19:43:50.617Z,63.90
2022-12-24T19:46:21.551Z,58.20
2022-12-24T19:48:55.261Z,50.00
2022-12-24T19:51:23.950Z,68.22
2022-12-24T19:53:52.424Z,56.65
2022-12-24T19:56:21.832Z,62.22
2022-12-24T19:58:49.405Z,59.25
2022-12-24T20:01:22.547Z,62.13
2022-12-24T20:03:51.291Z,56.05
2022-12-24T20:06:21.484Z,50.45
2022-12-24T20:08:49.071Z,49.08
2022-12-24T20:11:19.710Z,54.80
2022-12-24T20:13:46.670Z,61.42
2022-12-24T20:16:21.111Z,45.40
2022-12-24T20:18:57.314Z,55.55
2022-12-24T20:21:25.277Z,43.95
2022-12-24T20:23:52.460Z,49.92
2022-12-24T20:26:23.538Z,48.25
2022-12-24T20:28:50.506Z,56.80
2022-12-24T20:31:25.587Z,51.67
2022-12-24T20:33:53.458Z,45.92
2022-12-24T20:36:22.761Z,49.03
2022-12-24T20:38:50.499Z,45.00
2022-12-24T20:41:20.394Z,44.92
2022-12-24T20:43:49.010Z,55.90
2022-12-24T20:46:19.222Z,46.50
2022-12-24T20:48:46.764Z,51.75
2022-12-24T20:51:23.683Z,44.90
2022-12-24T20:53:54.111Z,49.17
2022-12-24T20:56:25.058Z,45.38
2022-12-24T20:58:52.421Z,47.25
2022-12-24T21:01:26.648Z,50.40
2022-12-24T21:03:57.302Z,45.15
2022-12-24T21:06:25.253Z,55.35
2022-12-24T21:08:53.792Z,38.03
2022-12-24T21:11:48.265Z,38.10
2022-12-24T21:14:19.484Z,39.53
2022-12-24T21:16:46.822Z,57.22
2022-12-24T21:19:23.733Z,59.88
2022-12-24T21:21:51.353Z,54.83
2022-12-24T21:24:18.159Z,54.55
2022-12-24T21:26:45.680Z,54.58
2022-12-24T21:29:12.665Z,49.22
2022-12-24T21:31:39.548Z,85.22
2022-12-24T21:34:07.163Z,71.22
2022-12-24T21:36:34.023Z,53.08
2022-12-24T21:39:01.084Z,52.60
2022-12-24T21:41:28.210Z,65.18
2022-12-24T21:43:55.248Z,82.30
2022-12-24T21:46:25.426Z,56.60
2022-12-24T21:49:12.851Z,61.30
2022-12-24T21:51:41.515Z,60.63
2022-12-24T21:54:23.304Z,55.47
2022-12-24T21:57:10.620Z,67.07
2022-12-24T21:59:37.432Z,52.28
2022-12-24T22:02:04.510Z,43.15
2022-12-24T22:04:33.409Z,44.47
2022-12-24T22:07:18.705Z,50.83
2022-12-24T22:12:33.484Z,27.20
2022-12-24T22:15:00.418Z,51.85
2022-12-24T22:17:28.604Z,49.08
2022-12-24T22:19:55.760Z,43.92
2022-12-24T22:22:23.172Z,38.97
2022-12-24T22:24:50.129Z,34.30
2022-12-24T22:27:17.123Z,35.40
2022-12-24T22:29:44.476Z,32.88
2022-12-24T22:32:11.457Z,32.10
2022-12-24T22:34:38.384Z,26.23
2022-12-24T22:37:05.223Z,35.13
2022-12-24T22:39:32.488Z,30.48
2022-12-24T22:41:59.466Z,30.08
2022-12-24T22:44:26.417Z,27.10
2022-12-24T22:46:53.721Z,29.45
2022-12-24T22:49:20.644Z,32.58
2022-12-24T22:51:47.511Z,41.95
2022-12-24T22:54:14.576Z,34.13
2022-12-24T22:56:41.934Z,32.72
2022-12-24T22:59:12.824Z,34.97
2022-12-24T23:01:43.785Z,24.17
2022-12-24T23:04:11.953Z,26.70
2022-12-24T23:06:39.646Z,24.13
2022-12-24T23:09:10.136Z,24.70
2022-12-24T23:11:37.058Z,26.17
2022-12-24T23:14:22.369Z,19.52
2022-12-24T23:19:16.195Z,19.63
2022-12-24T23:21:43.427Z,16.42
2022-12-24T23:24:11.445Z,17.05
2022-12-24T23:26:38.831Z,14.77
2022-12-24T23:29:05.775Z,12.10
2022-12-24T23:31:34.952Z,12.55
2022-12-24T23:34:02.381Z,14.00
2022-12-24T23:36:29.664Z,8.40
2022-12-24T23:38:57.794Z,6.30
2022-12-24T23:41:25.061Z,7.63
2022-12-24T23:43:51.977Z,7.95
2022-12-24T23:46:20.584Z,9.52
2022-12-24T23:48:47.830Z,6.20
2022-12-24T23:51:23.649Z,6.47
2022-12-24T23:53:53.396Z,7.05
2022-12-24T23:56:22.074Z,6.03
2022-12-24T23:58:49.283Z,9.18
